sensor_id;sensor_type;location;lat;lon;timestamp;P1;durP1;ratioP1;P2;durP2;ratioP2
18899;SDS011;9582;52.018;6.306;2023-12-07T00:02:01;15.80;;;10.63;;
18899;SDS011;9582;52.018;6.306;2023-12-07T00:04:29;21.47;;;13.57;;
18899;SDS011;9582;52.018;6.306;2023-12-07T00:06:56;23.93;;;13.40;;
18899;SDS011;9582;52.018;6.306;2023-12-07T00:09:23;19.40;;;13.13;;
18899;SDS011;9582;52.018;6.306;2023-12-07T00:11:49;23.40;;;13.10;;
18899;SDS011;9582;52.018;6.306;2023-12-07T00:14:16;21.10;;;13.03;;
18899;SDS011;9582;52.018;6.306;2023-12-07T00:16:42;24.70;;;13.70;;
18899;SDS011;9582;52.018;6.306;2023-12-07T00:19:09;18.97;;;12.70;;
18899;SDS011;9582;52.018;6.306;2023-12-07T00:21:37;20.60;;;13.67;;
18899;SDS011;9582;52.018;6.306;2023-12-07T00:24:04;19.87;;;13.13;;
18899;SDS011;9582;52.018;6.306;2023-12-07T00:26:31;20.90;;;12.73;;
18899;SDS011;9582;52.018;6.306;2023-12-07T00:28:57;22.73;;;13.73;;
18899;SDS011;9582;52.018;6.306;2023-12-07T00:31:24;20.17;;;12.83;;
18899;SDS011;9582;52.018;6.306;2023-12-07T00:33:51;19.67;;;11.80;;
18899;SDS011;9582;52.018;6.306;2023-12-07T00:36:18;22.93;;;12.93;;
18899;SDS011;9582;52.018;6.306;2023-12-07T00:38:46;23.47;;;12.90;;
18899;SDS011;9582;52.018;6.306;2023-12-07T00:41:13;19.10;;;12.30;;
18899;SDS011;9582;52.018;6.306;2023-12-07T00:43:39;19.37;;;12.13;;
18899;SDS011;9582;52.018;6.306;2023-12-07T00:46:06;21.13;;;12.13;;
18899;SDS011;9582;52.018;6.306;2023-12-07T00:48:33;20.60;;;11.60;;
18899;SDS011;9582;52.018;6.306;2023-12-07T00:51:00;19.23;;;11.80;;
18899;SDS011;9582;52.018;6.306;2023-12-07T00:53:26;17.37;;;11.90;;
18899;SDS011;9582;52.018;6.306;2023-12-07T00:55:54;19.40;;;11.70;;
18899;SDS011;9582;52.018;6.306;2023-12-07T00:58:21;18.80;;;11.43;;
18899;SDS011;9582;52.018;6.306;2023-12-07T01:00:48;18.87;;;12.17;;
18899;SDS011;9582;52.018;6.306;2023-12-07T01:03:14;20.00;;;11.73;;
18899;SDS011;9582;52.018;6.306;2023-12-07T01:05:41;15.87;;;11.23;;
18899;SDS011;9582;52.018;6.306;2023-12-07T01:08:08;17.07;;;11.90;;
18899;SDS011;9582;52.018;6.306;2023-12-07T01:10:34;20.57;;;12.43;;
18899;SDS011;9582;52.018;6.306;2023-12-07T01:13:02;14.00;;;9.90;;
18899;SDS011;9582;52.018;6.306;2023-12-07T01:15:29;15.47;;;9.00;;
18899;SDS011;9582;52.018;6.306;2023-12-07T01:17:55;15.57;;;9.03;;
18899;SDS011;9582;52.018;6.306;2023-12-07T01:20:22;14.23;;;9.43;;
18899;SDS011;9582;52.018;6.306;2023-12-07T01:22:48;16.63;;;9.87;;
18899;SDS011;9582;52.018;6.306;2023-12-07T01:25:15;15.63;;;9.93;;
18899;SDS011;9582;52.018;6.306;2023-12-07T01:27:46;14.20;;;8.70;;
18899;SDS011;9582;52.018;6.306;2023-12-07T01:30:14;12.93;;;8.43;;
18899;SDS011;9582;52.018;6.306;2023-12-07T01:32:41;14.30;;;8.70;;
18899;SDS011;9582;52.018;6.306;2023-12-07T01:35:08;14.83;;;9.47;;
18899;SDS011;9582;52.018;6.306;2023-12-07T01:37:35;16.00;;;9.80;;
18899;SDS011;9582;52.018;6.306;2023-12-07T01:40:01;18.47;;;10.57;;
18899;SDS011;9582;52.018;6.306;2023-12-07T01:42:31;18.00;;;10.10;;
18899;SDS011;9582;52.018;6.306;2023-12-07T01:44:57;19.93;;;11.13;;
18899;SDS011;9582;52.018;6.306;2023-12-07T01:47:25;30.17;;;13.20;;
18899;SDS011;9582;52.018;6.306;2023-12-07T01:49:52;27.37;;;12.47;;
18899;SDS011;9582;52.018;6.306;2023-12-07T01:52:20;19.90;;;10.70;;
18899;SDS011;9582;52.018;6.306;2023-12-07T01:54:49;18.80;;;11.50;;
18899;SDS011;9582;52.018;6.306;2023-12-07T01:57:16;19.73;;;11.40;;
18899;SDS011;9582;52.018;6.306;2023-12-07T01:59:43;22.97;;;12.23;;
18899;SDS011;9582;52.018;6.306;2023-12-07T02:02:10;16.93;;;11.10;;
18899;SDS011;9582;52.018;6.306;2023-12-07T02:04:38;19.97;;;11.73;;
18899;SDS011;9582;52.018;6.306;2023-12-07T02:07:05;21.50;;;12.63;;
18899;SDS011;9582;52.018;6.306;2023-12-07T02:09:33;23.43;;;11.60;;
18899;SDS011;9582;52.018;6.306;2023-12-07T02:11:59;16.37;;;11.63;;
18899;SDS011;9582;52.018;6.306;2023-12-07T02:14:26;46.03;;;13.30;;
18899;SDS011;9582;52.018;6.306;2023-12-07T02:16:54;101.70;;;21.27;;
18899;SDS011;9582;52.018;6.306;2023-12-07T02:19:48;21.63;;;11.63;;
18899;SDS011;9582;52.018;6.306;2023-12-07T02:22:21;33.70;;;13.87;;
18899;SDS011;9582;52.018;6.306;2023-12-07T02:24:57;53.00;;;14.63;;
18899;SDS011;9582;52.018;6.306;2023-12-07T02:27:35;139.37;;;20.90;;
18899;SDS011;9582;52.018;6.306;2023-12-07T02:30:02;20.97;;;11.60;;
18899;SDS011;9582;52.018;6.306;2023-12-07T02:32:29;18.63;;;10.93;;
18899;SDS011;9582;52.018;6.306;2023-12-07T02:34:56;20.33;;;11.33;;
18899;SDS011;9582;52.018;6.306;2023-12-07T02:37:23;21.97;;;12.50;;
18899;SDS011;9582;52.018;6.306;2023-12-07T02:39:54;23.90;;;12.50;;
18899;SDS011;9582;52.018;6.306;2023-12-07T02:42:21;22.57;;;11.70;;
18899;SDS011;9582;52.018;6.306;2023-12-07T02:44:51;27.13;;;12.67;;
18899;SDS011;9582;52.018;6.306;2023-12-07T02:47:19;31.07;;;13.23;;
18899;SDS011;9582;52.018;6.306;2023-12-07T02:49:45;19.10;;;10.60;;
18899;SDS011;9582;52.018;6.306;2023-12-07T02:52:12;50.83;;;12.63;;
18899;SDS011;9582;52.018;6.306;2023-12-07T02:54:39;65.77;;;15.87;;
18899;SDS011;9582;52.018;6.306;2023-12-07T02:57:05;22.20;;;11.53;;
18899;SDS011;9582;52.018;6.306;2023-12-07T02:59:32;32.43;;;10.93;;
18899;SDS011;9582;52.018;6.306;2023-12-07T03:02:00;19.30;;;10.37;;
18899;SDS011;9582;52.018;6.306;2023-12-07T03:04:27;22.00;;;10.73;;
18899;SDS011;9582;52.018;6.306;2023-12-07T03:06:53;108.57;;;18.20;;
18899;SDS011;9582;52.018;6.306;2023-12-07T03:09:20;43.50;;;12.30;;
18899;SDS011;9582;52.018;6.306;2023-12-07T03:11:46;48.63;;;13.00;;
18899;SDS011;9582;52.018;6.306;2023-12-07T03:14:13;26.20;;;11.43;;
18899;SDS011;9582;52.018;6.306;2023-12-07T03:16:39;18.60;;;11.00;;
18899;SDS011;9582;52.018;6.306;2023-12-07T03:19:07;31.43;;;12.07;;
18899;SDS011;9582;52.018;6.306;2023-12-07T03:21:38;39.40;;;13.33;;
18899;SDS011;9582;52.018;6.306;2023-12-07T03:24:06;67.97;;;16.17;;
18899;SDS011;9582;52.018;6.306;2023-12-07T03:26:33;19.03;;;12.10;;
18899;SDS011;9582;52.018;6.306;2023-12-07T03:29:00;36.80;;;12.87;;
18899;SDS011;9582;52.018;6.306;2023-12-07T03:31:27;22.23;;;12.33;;
18899;SDS011;9582;52.018;6.306;2023-12-07T03:33:54;41.43;;;13.57;;
18899;SDS011;9582;52.018;6.306;2023-12-07T03:36:22;94.87;;;18.53;;
18899;SDS011;9582;52.018;6.306;2023-12-07T03:38:49;31.73;;;14.47;;
18899;SDS011;9582;52.018;6.306;2023-12-07T03:41:15;24.80;;;11.70;;
18899;SDS011;9582;52.018;6.306;2023-12-07T03:43:42;26.93;;;14.43;;
18899;SDS011;9582;52.018;6.306;2023-12-07T03:46:09;82.37;;;19.10;;
18899;SDS011;9582;52.018;6.306;2023-12-07T03:48:35;25.93;;;11.50;;
18899;SDS011;9582;52.018;6.306;2023-12-07T03:51:02;27.80;;;10.83;;
18899;SDS011;9582;52.018;6.306;2023-12-07T03:53:31;16.37;;;10.07;;
18899;SDS011;9582;52.018;6.306;2023-12-07T03:55:57;18.97;;;10.37;;
18899;SDS011;9582;52.018;6.306;2023-12-07T03:58:24;17.57;;;10.77;;
18899;SDS011;9582;52.018;6.306;2023-12-07T04:00:51;23.33;;;11.67;;
18899;SDS011;9582;52.018;6.306;2023-12-07T04:03:17;20.77;;;12.57;;
18899;SDS011;9582;52.018;6.306;2023-12-07T04:05:44;27.23;;;12.73;;
18899;SDS011;9582;52.018;6.306;2023-12-07T04:08:11;17.33;;;11.20;;
18899;SDS011;9582;52.018;6.306;2023-12-07T04:10:39;17.37;;;10.87;;
18899;SDS011;9582;52.018;6.306;2023-12-07T04:13:05;25.03;;;12.83;;
18899;SDS011;9582;52.018;6.306;2023-12-07T04:15:32;25.57;;;14.83;;
18899;SDS011;9582;52.018;6.306;2023-12-07T04:17:59;20.13;;;13.90;;
18899;SDS011;9582;52.018;6.306;2023-12-07T04:20:25;21.47;;;13.83;;
18899;SDS011;9582;52.018;6.306;2023-12-07T04:22:52;36.40;;;16.97;;
18899;SDS011;9582;52.018;6.306;2023-12-07T04:25:19;21.50;;;14.63;;
18899;SDS011;9582;52.018;6.306;2023-12-07T04:27:47;29.40;;;16.40;;
18899;SDS011;9582;52.018;6.306;2023-12-07T04:30:13;24.73;;;14.93;;
18899;SDS011;9582;52.018;6.306;2023-12-07T04:32:40;27.20;;;16.13;;
18899;SDS011;9582;52.018;6.306;2023-12-07T04:35:07;23.77;;;15.43;;
18899;SDS011;9582;52.018;6.306;2023-12-07T04:37:33;25.37;;;16.00;;
18899;SDS011;9582;52.018;6.306;2023-12-07T04:40:00;31.47;;;16.97;;
18899;SDS011;9582;52.018;6.306;2023-12-07T04:42:28;28.07;;;17.50;;
18899;SDS011;9582;52.018;6.306;2023-12-07T04:44:55;26.00;;;15.27;;
18899;SDS011;9582;52.018;6.306;2023-12-07T04:47:22;27.93;;;15.43;;
18899;SDS011;9582;52.018;6.306;2023-12-07T04:49:49;24.73;;;16.37;;
18899;SDS011;9582;52.018;6.306;2023-12-07T04:52:15;28.33;;;16.53;;
18899;SDS011;9582;52.018;6.306;2023-12-07T04:54:42;27.53;;;16.67;;
18899;SDS011;9582;52.018;6.306;2023-12-07T04:57:09;29.50;;;15.37;;
18899;SDS011;9582;52.018;6.306;2023-12-07T04:59:35;33.70;;;17.57;;
18899;SDS011;9582;52.018;6.306;2023-12-07T05:02:03;30.30;;;16.77;;
18899;SDS011;9582;52.018;6.306;2023-12-07T05:04:30;35.53;;;17.00;;
18899;SDS011;9582;52.018;6.306;2023-12-07T05:06:58;38.07;;;17.67;;
18899;SDS011;9582;52.018;6.306;2023-12-07T05:09:25;33.80;;;16.70;;
18899;SDS011;9582;52.018;6.306;2023-12-07T05:11:51;34.23;;;17.60;;
18899;SDS011;9582;52.018;6.306;2023-12-07T05:14:18;26.60;;;16.30;;
18899;SDS011;9582;52.018;6.306;2023-12-07T05:16:45;41.07;;;18.80;;
18899;SDS011;9582;52.018;6.306;2023-12-07T05:19:14;31.47;;;16.90;;
18899;SDS011;9582;52.018;6.306;2023-12-07T05:21:41;32.20;;;17.50;;
18899;SDS011;9582;52.018;6.306;2023-12-07T05:24:07;35.17;;;17.17;;
18899;SDS011;9582;52.018;6.306;2023-12-07T05:26:34;42.93;;;17.77;;
18899;SDS011;9582;52.018;6.306;2023-12-07T05:29:01;36.47;;;17.43;;
18899;SDS011;9582;52.018;6.306;2023-12-07T05:31:28;30.07;;;17.47;;
18899;SDS011;9582;52.018;6.306;2023-12-07T05:33:55;31.60;;;16.90;;
18899;SDS011;9582;52.018;6.306;2023-12-07T05:36:23;32.17;;;18.07;;
18899;SDS011;9582;52.018;6.306;2023-12-07T05:38:49;45.77;;;18.83;;
18899;SDS011;9582;52.018;6.306;2023-12-07T05:41:16;40.50;;;18.17;;
18899;SDS011;9582;52.018;6.306;2023-12-07T05:43:42;35.90;;;17.00;;
18899;SDS011;9582;52.018;6.306;2023-12-07T05:46:09;70.40;;;21.80;;
18899;SDS011;9582;52.018;6.306;2023-12-07T05:48:36;72.40;;;22.23;;
18899;SDS011;9582;52.018;6.306;2023-12-07T05:51:03;57.00;;;19.43;;
18899;SDS011;9582;52.018;6.306;2023-12-07T05:53:31;70.73;;;20.53;;
18899;SDS011;9582;52.018;6.306;2023-12-07T05:55:58;75.60;;;21.87;;
18899;SDS011;9582;52.018;6.306;2023-12-07T05:58:25;96.40;;;22.20;;
18899;SDS011;9582;52.018;6.306;2023-12-07T06:00:51;42.37;;;16.67;;
18899;SDS011;9582;52.018;6.306;2023-12-07T06:03:18;61.40;;;18.53;;
18899;SDS011;9582;52.018;6.306;2023-12-07T06:05:45;180.60;;;29.50;;
18899;SDS011;9582;52.018;6.306;2023-12-07T06:08:11;108.90;;;25.10;;
18899;SDS011;9582;52.018;6.306;2023-12-07T06:10:39;69.87;;;20.37;;
18899;SDS011;9582;52.018;6.306;2023-12-07T06:13:06;117.07;;;24.23;;
18899;SDS011;9582;52.018;6.306;2023-12-07T06:15:33;96.63;;;22.73;;
18899;SDS011;9582;52.018;6.306;2023-12-07T06:18:00;206.30;;;32.60;;
18899;SDS011;9582;52.018;6.306;2023-12-07T06:20:26;77.40;;;21.90;;
18899;SDS011;9582;52.018;6.306;2023-12-07T06:22:53;94.30;;;22.43;;
18899;SDS011;9582;52.018;6.306;2023-12-07T06:25:20;218.70;;;33.10;;
18899;SDS011;9582;52.018;6.306;2023-12-07T06:27:48;152.17;;;27.93;;
18899;SDS011;9582;52.018;6.306;2023-12-07T06:30:15;142.27;;;26.03;;
18899;SDS011;9582;52.018;6.306;2023-12-07T06:32:43;159.03;;;29.90;;
18899;SDS011;9582;52.018;6.306;2023-12-07T06:35:11;59.27;;;19.57;;
18899;SDS011;9582;52.018;6.306;2023-12-07T06:37:38;287.33;;;38.90;;
18899;SDS011;9582;52.018;6.306;2023-12-07T06:40:06;301.00;;;40.63;;
18899;SDS011;9582;52.018;6.306;2023-12-07T06:42:35;146.60;;;26.67;;
18899;SDS011;9582;52.018;6.306;2023-12-07T06:45:03;245.27;;;35.87;;
18899;SDS011;9582;52.018;6.306;2023-12-07T06:47:35;150.33;;;27.83;;
18899;SDS011;9582;52.018;6.306;2023-12-07T06:50:02;260.87;;;37.33;;
18899;SDS011;9582;52.018;6.306;2023-12-07T06:52:29;325.60;;;42.87;;
18899;SDS011;9582;52.018;6.306;2023-12-07T06:54:55;214.27;;;31.80;;
18899;SDS011;9582;52.018;6.306;2023-12-07T06:57:23;232.73;;;36.63;;
18899;SDS011;9582;52.018;6.306;2023-12-07T06:59:49;192.60;;;33.67;;
18899;SDS011;9582;52.018;6.306;2023-12-07T07:02:17;163.13;;;29.17;;
18899;SDS011;9582;52.018;6.306;2023-12-07T07:04:44;148.07;;;28.93;;
18899;SDS011;9582;52.018;6.306;2023-12-07T07:07:13;170.87;;;30.77;;
18899;SDS011;9582;52.018;6.306;2023-12-07T07:09:40;217.87;;;33.37;;
18899;SDS011;9582;52.018;6.306;2023-12-07T07:12:07;216.10;;;34.17;;
18899;SDS011;9582;52.018;6.306;2023-12-07T07:14:34;169.50;;;28.00;;
18899;SDS011;9582;52.018;6.306;2023-12-07T07:17:00;254.63;;;37.17;;
18899;SDS011;9582;52.018;6.306;2023-12-07T07:19:28;158.60;;;27.73;;
18899;SDS011;9582;52.018;6.306;2023-12-07T07:21:55;306.33;;;39.60;;
18899;SDS011;9582;52.018;6.306;2023-12-07T07:24:22;266.87;;;35.60;;
18899;SDS011;9582;52.018;6.306;2023-12-07T07:26:48;290.30;;;37.60;;
18899;SDS011;9582;52.018;6.306;2023-12-07T07:29:15;180.17;;;32.13;;
18899;SDS011;9582;52.018;6.306;2023-12-07T07:31:41;205.47;;;31.03;;
18899;SDS011;9582;52.018;6.306;2023-12-07T07:34:08;105.50;;;21.87;;
18899;SDS011;9582;52.018;6.306;2023-12-07T07:36:36;109.50;;;25.37;;
18899;SDS011;9582;52.018;6.306;2023-12-07T07:39:02;157.67;;;27.77;;
18899;SDS011;9582;52.018;6.306;2023-12-07T07:41:32;297.30;;;38.27;;
18899;SDS011;9582;52.018;6.306;2023-12-07T07:43:59;321.33;;;40.67;;
18899;SDS011;9582;52.018;6.306;2023-12-07T07:46:25;228.87;;;33.67;;
18899;SDS011;9582;52.018;6.306;2023-12-07T07:48:52;219.30;;;32.50;;
18899;SDS011;9582;52.018;6.306;2023-12-07T07:51:19;161.13;;;28.67;;
18899;SDS011;9582;52.018;6.306;2023-12-07T07:53:47;142.70;;;28.37;;
18899;SDS011;9582;52.018;6.306;2023-12-07T07:56:13;234.80;;;34.83;;
18899;SDS011;9582;52.018;6.306;2023-12-07T07:58:40;167.93;;;31.30;;
18899;SDS011;9582;52.018;6.306;2023-12-07T08:01:07;124.27;;;29.57;;
18899;SDS011;9582;52.018;6.306;2023-12-07T08:03:33;91.80;;;23.93;;
18899;SDS011;9582;52.018;6.306;2023-12-07T08:06:00;189.70;;;30.27;;
18899;SDS011;9582;52.018;6.306;2023-12-07T08:08:27;84.67;;;20.97;;
18899;SDS011;9582;52.018;6.306;2023-12-07T08:10:54;138.07;;;28.20;;
18899;SDS011;9582;52.018;6.306;2023-12-07T08:13:21;119.50;;;27.37;;
18899;SDS011;9582;52.018;6.306;2023-12-07T08:15:48;164.13;;;29.37;;
18899;SDS011;9582;52.018;6.306;2023-12-07T08:18:14;272.73;;;37.17;;
18899;SDS011;9582;52.018;6.306;2023-12-07T08:20:41;191.13;;;33.33;;
18899;SDS011;9582;52.018;6.306;2023-12-07T08:23:07;148.07;;;29.57;;
18899;SDS011;9582;52.018;6.306;2023-12-07T08:25:35;210.27;;;33.20;;
18899;SDS011;9582;52.018;6.306;2023-12-07T08:28:03;122.13;;;23.43;;
18899;SDS011;9582;52.018;6.306;2023-12-07T08:30:30;201.57;;;31.87;;
18899;SDS011;9582;52.018;6.306;2023-12-07T08:32:57;163.27;;;28.00;;
18899;SDS011;9582;52.018;6.306;2023-12-07T08:35:24;94.87;;;21.03;;
18899;SDS011;9582;52.018;6.306;2023-12-07T08:37:50;219.53;;;32.93;;
18899;SDS011;9582;52.018;6.306;2023-12-07T08:40:17;184.50;;;30.43;;
18899;SDS011;9582;52.018;6.306;2023-12-07T08:42:45;153.27;;;27.67;;
18899;SDS011;9582;52.018;6.306;2023-12-07T08:45:14;141.60;;;24.83;;
18899;SDS011;9582;52.018;6.306;2023-12-07T08:47:41;240.97;;;31.80;;
18899;SDS011;9582;52.018;6.306;2023-12-07T08:50:08;243.93;;;35.30;;
18899;SDS011;9582;52.018;6.306;2023-12-07T08:52:35;282.80;;;35.40;;
18899;SDS011;9582;52.018;6.306;2023-12-07T08:55:02;180.83;;;30.03;;
18899;SDS011;9582;52.018;6.306;2023-12-07T08:57:28;211.17;;;32.07;;
18899;SDS011;9582;52.018;6.306;2023-12-07T08:59:55;247.60;;;34.40;;
18899;SDS011;9582;52.018;6.306;2023-12-07T09:02:24;348.23;;;41.13;;
18899;SDS011;9582;52.018;6.306;2023-12-07T09:04:51;181.97;;;31.33;;
18899;SDS011;9582;52.018;6.306;2023-12-07T09:07:18;332.77;;;41.63;;
18899;SDS011;9582;52.018;6.306;2023-12-07T09:09:44;153.17;;;28.77;;
18899;SDS011;9582;52.018;6.306;2023-12-07T09:12:12;154.83;;;30.90;;
18899;SDS011;9582;52.018;6.306;2023-12-07T09:14:39;182.70;;;31.23;;
18899;SDS011;9582;52.018;6.306;2023-12-07T09:17:06;241.13;;;35.87;;
18899;SDS011;9582;52.018;6.306;2023-12-07T09:19:34;314.13;;;39.93;;
18899;SDS011;9582;52.018;6.306;2023-12-07T09:22:00;276.67;;;37.13;;
18899;SDS011;9582;52.018;6.306;2023-12-07T09:24:26;229.57;;;33.33;;
18899;SDS011;9582;52.018;6.306;2023-12-07T09:26:53;196.67;;;30.93;;
18899;SDS011;9582;52.018;6.306;2023-12-07T09:29:19;215.30;;;33.50;;
18899;SDS011;9582;52.018;6.306;2023-12-07T09:31:46;158.70;;;29.60;;
18899;SDS011;9582;52.018;6.306;2023-12-07T09:34:13;409.33;;;46.90;;
18899;SDS011;9582;52.018;6.306;2023-12-07T09:36:44;142.93;;;27.43;;
18899;SDS011;9582;52.018;6.306;2023-12-07T09:39:10;221.30;;;33.07;;
18899;SDS011;9582;52.018;6.306;2023-12-07T09:41:38;289.33;;;38.03;;
18899;SDS011;9582;52.018;6.306;2023-12-07T09:44:06;293.67;;;36.53;;
18899;SDS011;9582;52.018;6.306;2023-12-07T09:46:32;140.47;;;26.93;;
18899;SDS011;9582;52.018;6.306;2023-12-07T09:48:59;370.37;;;44.93;;
18899;SDS011;9582;52.018;6.306;2023-12-07T09:51:26;118.10;;;20.97;;
18899;SDS011;9582;52.018;6.306;2023-12-07T09:53:56;191.03;;;30.70;;
18899;SDS011;9582;52.018;6.306;2023-12-07T09:56:24;156.80;;;25.50;;
18899;SDS011;9582;52.018;6.306;2023-12-07T09:58:50;298.40;;;37.83;;
18899;SDS011;9582;52.018;6.306;2023-12-07T10:01:17;201.20;;;28.97;;
18899;SDS011;9582;52.018;6.306;2023-12-07T10:03:44;221.73;;;31.97;;
18899;SDS011;9582;52.018;6.306;2023-12-07T10:06:12;162.07;;;27.63;;
18899;SDS011;9582;52.018;6.306;2023-12-07T10:08:38;176.20;;;28.67;;
18899;SDS011;9582;52.018;6.306;2023-12-07T10:11:07;110.27;;;25.23;;
18899;SDS011;9582;52.018;6.306;2023-12-07T10:13:35;199.70;;;30.73;;
18899;SDS011;9582;52.018;6.306;2023-12-07T10:16:06;177.23;;;26.97;;
18899;SDS011;9582;52.018;6.306;2023-12-07T10:18:35;80.40;;;21.77;;
18899;SDS011;9582;52.018;6.306;2023-12-07T10:21:01;261.80;;;33.10;;
18899;SDS011;9582;52.018;6.306;2023-12-07T10:23:29;136.83;;;25.47;;
18899;SDS011;9582;52.018;6.306;2023-12-07T10:25:57;73.70;;;20.40;;
18899;SDS011;9582;52.018;6.306;2023-12-07T10:28:26;69.83;;;19.10;;
18899;SDS011;9582;52.018;6.306;2023-12-07T10:30:52;80.23;;;17.83;;
18899;SDS011;9582;52.018;6.306;2023-12-07T10:33:19;96.40;;;23.63;;
18899;SDS011;9582;52.018;6.306;2023-12-07T10:35:46;143.00;;;26.10;;
18899;SDS011;9582;52.018;6.306;2023-12-07T10:38:14;152.17;;;25.77;;
18899;SDS011;9582;52.018;6.306;2023-12-07T10:40:41;178.90;;;28.60;;
18899;SDS011;9582;52.018;6.306;2023-12-07T10:43:08;181.07;;;28.57;;
18899;SDS011;9582;52.018;6.306;2023-12-07T10:45:37;208.33;;;29.83;;
18899;SDS011;9582;52.018;6.306;2023-12-07T10:48:06;118.47;;;23.97;;
18899;SDS011;9582;52.018;6.306;2023-12-07T10:50:34;112.67;;;24.47;;
18899;SDS011;9582;52.018;6.306;2023-12-07T10:53:04;105.43;;;23.93;;
18899;SDS011;9582;52.018;6.306;2023-12-07T10:55:37;118.93;;;24.13;;
18899;SDS011;9582;52.018;6.306;2023-12-07T10:58:09;125.40;;;25.20;;
18899;SDS011;9582;52.018;6.306;2023-12-07T11:00:39;91.43;;;19.23;;
18899;SDS011;9582;52.018;6.306;2023-12-07T11:03:11;81.63;;;18.27;;
18899;SDS011;9582;52.018;6.306;2023-12-07T11:05:41;110.90;;;21.57;;
18899;SDS011;9582;52.018;6.306;2023-12-07T11:08:09;134.63;;;24.43;;
18899;SDS011;9582;52.018;6.306;2023-12-07T11:10:43;179.70;;;26.47;;
18899;SDS011;9582;52.018;6.306;2023-12-07T11:13:16;209.77;;;29.17;;
18899;SDS011;9582;52.018;6.306;2023-12-07T11:15:47;172.60;;;26.30;;
18899;SDS011;9582;52.018;6.306;2023-12-07T11:18:14;158.60;;;24.90;;
18899;SDS011;9582;52.018;6.306;2023-12-07T11:20:41;120.67;;;24.07;;
18899;SDS011;9582;52.018;6.306;2023-12-07T11:23:09;143.53;;;25.00;;
18899;SDS011;9582;52.018;6.306;2023-12-07T11:25:36;185.63;;;26.67;;
18899;SDS011;9582;52.018;6.306;2023-12-07T11:28:04;109.87;;;21.23;;
18899;SDS011;9582;52.018;6.306;2023-12-07T11:30:32;97.27;;;20.73;;
18899;SDS011;9582;52.018;6.306;2023-12-07T11:33:02;70.60;;;20.73;;
18899;SDS011;9582;52.018;6.306;2023-12-07T11:35:30;97.00;;;22.43;;
18899;SDS011;9582;52.018;6.306;2023-12-07T11:38:00;63.57;;;18.63;;
18899;SDS011;9582;52.018;6.306;2023-12-07T11:40:29;75.90;;;20.93;;
18899;SDS011;9582;52.018;6.306;2023-12-07T11:42:57;62.00;;;18.77;;
18899;SDS011;9582;52.018;6.306;2023-12-07T11:45:38;67.60;;;21.50;;
18899;SDS011;9582;52.018;6.306;2023-12-07T11:48:08;51.10;;;19.20;;
18899;SDS011;9582;52.018;6.306;2023-12-07T11:50:35;61.17;;;20.40;;
18899;SDS011;9582;52.018;6.306;2023-12-07T11:53:02;57.10;;;19.63;;
18899;SDS011;9582;52.018;6.306;2023-12-07T11:55:29;61.47;;;20.47;;
18899;SDS011;9582;52.018;6.306;2023-12-07T11:57:58;76.37;;;23.00;;
18899;SDS011;9582;52.018;6.306;2023-12-07T12:00:25;61.90;;;21.13;;
18899;SDS011;9582;52.018;6.306;2023-12-07T12:02:52;57.23;;;20.97;;
18899;SDS011;9582;52.018;6.306;2023-12-07T12:05:20;61.57;;;22.07;;
18899;SDS011;9582;52.018;6.306;2023-12-07T12:07:46;56.37;;;21.63;;
18899;SDS011;9582;52.018;6.306;2023-12-07T12:10:13;56.40;;;21.67;;
18899;SDS011;9582;52.018;6.306;2023-12-07T12:12:40;59.13;;;21.40;;
18899;SDS011;9582;52.018;6.306;2023-12-07T12:15:06;47.33;;;19.27;;
18899;SDS011;9582;52.018;6.306;2023-12-07T12:17:34;61.93;;;22.93;;
18899;SDS011;9582;52.018;6.306;2023-12-07T12:20:02;53.03;;;21.67;;
18899;SDS011;9582;52.018;6.306;2023-12-07T12:22:30;52.17;;;20.70;;
18899;SDS011;9582;52.018;6.306;2023-12-07T12:24:57;51.83;;;20.53;;
18899;SDS011;9582;52.018;6.306;2023-12-07T12:27:24;54.27;;;21.83;;
18899;SDS011;9582;52.018;6.306;2023-12-07T12:29:51;57.90;;;22.83;;
18899;SDS011;9582;52.018;6.306;2023-12-07T12:32:17;57.17;;;22.80;;
18899;SDS011;9582;52.018;6.306;2023-12-07T12:34:50;55.23;;;23.77;;
18899;SDS011;9582;52.018;6.306;2023-12-07T12:37:17;51.90;;;22.47;;
18899;SDS011;9582;52.018;6.306;2023-12-07T12:39:46;52.97;;;22.37;;
18899;SDS011;9582;52.018;6.306;2023-12-07T12:42:13;58.27;;;25.00;;
18899;SDS011;9582;52.018;6.306;2023-12-07T12:44:40;59.83;;;25.07;;
18899;SDS011;9582;52.018;6.306;2023-12-07T12:47:08;65.90;;;27.27;;
18899;SDS011;9582;52.018;6.306;2023-12-07T12:49:35;60.73;;;26.20;;
18899;SDS011;9582;52.018;6.306;2023-12-07T12:52:02;63.23;;;27.20;;
18899;SDS011;9582;52.018;6.306;2023-12-07T12:54:30;57.90;;;25.57;;
18899;SDS011;9582;52.018;6.306;2023-12-07T12:56:58;61.23;;;24.97;;
18899;SDS011;9582;52.018;6.306;2023-12-07T12:59:25;60.10;;;26.83;;
18899;SDS011;9582;52.018;6.306;2023-12-07T13:01:52;63.50;;;27.23;;
18899;SDS011;9582;52.018;6.306;2023-12-07T13:04:19;58.10;;;26.10;;
18899;SDS011;9582;52.018;6.306;2023-12-07T13:06:45;58.67;;;26.53;;
18899;SDS011;9582;52.018;6.306;2023-12-07T13:09:13;66.37;;;27.27;;
18899;SDS011;9582;52.018;6.306;2023-12-07T13:11:42;62.23;;;27.23;;
18899;SDS011;9582;52.018;6.306;2023-12-07T13:14:09;66.73;;;29.20;;
18899;SDS011;9582;52.018;6.306;2023-12-07T13:16:36;70.30;;;29.80;;
18899;SDS011;9582;52.018;6.306;2023-12-07T13:19:03;73.67;;;31.37;;
18899;SDS011;9582;52.018;6.306;2023-12-07T13:21:29;78.43;;;33.20;;
18899;SDS011;9582;52.018;6.306;2023-12-07T13:23:57;73.30;;;32.60;;
18899;SDS011;9582;52.018;6.306;2023-12-07T13:26:23;77.70;;;32.67;;
18899;SDS011;9582;52.018;6.306;2023-12-07T13:28:50;77.00;;;34.00;;
18899;SDS011;9582;52.018;6.306;2023-12-07T13:31:19;80.47;;;34.80;;
18899;SDS011;9582;52.018;6.306;2023-12-07T13:33:46;78.23;;;32.60;;
18899;SDS011;9582;52.018;6.306;2023-12-07T13:36:12;72.83;;;33.83;;
18899;SDS011;9582;52.018;6.306;2023-12-07T13:38:43;77.47;;;32.10;;
18899;SDS011;9582;52.018;6.306;2023-12-07T13:41:09;78.87;;;33.80;;
18899;SDS011;9582;52.018;6.306;2023-12-07T13:43:36;69.57;;;30.23;;
18899;SDS011;9582;52.018;6.306;2023-12-07T13:46:03;75.73;;;32.90;;
18899;SDS011;9582;52.018;6.306;2023-12-07T13:48:31;71.73;;;32.60;;
18899;SDS011;9582;52.018;6.306;2023-12-07T13:50:58;73.27;;;32.17;;
18899;SDS011;9582;52.018;6.306;2023-12-07T13:53:24;68.37;;;30.43;;
18899;SDS011;9582;52.018;6.306;2023-12-07T13:55:51;67.70;;;32.27;;
18899;SDS011;9582;52.018;6.306;2023-12-07T13:58:17;72.80;;;31.50;;
18899;SDS011;9582;52.018;6.306;2023-12-07T14:00:44;69.03;;;31.97;;
18899;SDS011;9582;52.018;6.306;2023-12-07T14:03:11;57.10;;;28.30;;
18899;SDS011;9582;52.018;6.306;2023-12-07T14:05:39;63.30;;;30.10;;
18899;SDS011;9582;52.018;6.306;2023-12-07T14:08:06;63.70;;;29.53;;
18899;SDS011;9582;52.018;6.306;2023-12-07T14:10:33;55.40;;;28.13;;
18899;SDS011;9582;52.018;6.306;2023-12-07T14:13:01;59.53;;;29.67;;
18899;SDS011;9582;52.018;6.306;2023-12-07T14:15:27;57.63;;;27.53;;
18899;SDS011;9582;52.018;6.306;2023-12-07T14:17:54;56.83;;;27.83;;
18899;SDS011;9582;52.018;6.306;2023-12-07T14:20:20;53.13;;;27.77;;
18899;SDS011;9582;52.018;6.306;2023-12-07T14:22:50;56.27;;;26.00;;
18899;SDS011;9582;52.018;6.306;2023-12-07T14:25:17;56.03;;;27.67;;
18899;SDS011;9582;52.018;6.306;2023-12-07T14:27:44;53.93;;;27.43;;
18899;SDS011;9582;52.018;6.306;2023-12-07T14:30:11;60.43;;;27.00;;
18899;SDS011;9582;52.018;6.306;2023-12-07T14:32:38;58.50;;;28.00;;